sensor_id;sensor_type;location;lat;lon;timestamp;P1;durP1;ratioP1;P2;durP2;ratioP2
20365;SDS011;10341;49.894;8.822;2023-02-15T00:05:15;33.67;;;15.32;;
20365;SDS011;10341;49.894;8.822;2023-02-15T00:15:54;32.17;;;14.50;;
20365;SDS011;10341;49.894;8.822;2023-02-15T00:21:13;35.33;;;16.07;;
20365;SDS011;10341;49.894;8.822;2023-02-15T00:26:32;40.75;;;15.90;;
20365;SDS011;10341;49.894;8.822;2023-02-15T00:31:52;43.60;;;16.92;;
20365;SDS011;10341;49.894;8.822;2023-02-15T00:37:12;38.55;;;16.75;;
20365;SDS011;10341;49.894;8.822;2023-02-15T00:42:31;37.90;;;15.75;;
20365;SDS011;10341;49.894;8.822;2023-02-15T00:47:50;35.17;;;16.30;;
20365;SDS011;10341;49.894;8.822;2023-02-15T00:53:10;36.40;;;15.45;;
20365;SDS011;10341;49.894;8.822;2023-02-15T00:58:29;39.42;;;16.85;;
20365;SDS011;10341;49.894;8.822;2023-02-15T01:03:49;41.30;;;15.52;;
20365;SDS011;10341;49.894;8.822;2023-02-15T01:09:09;44.22;;;17.38;;
20365;SDS011;10341;49.894;8.822;2023-02-15T01:14:29;41.78;;;16.95;;
20365;SDS011;10341;49.894;8.822;2023-02-15T01:19:49;42.35;;;16.92;;
20365;SDS011;10341;49.894;8.822;2023-02-15T01:25:11;37.22;;;16.08;;
20365;SDS011;10341;49.894;8.822;2023-02-15T01:30:30;40.20;;;16.08;;
20365;SDS011;10341;49.894;8.822;2023-02-15T01:35:57;37.85;;;15.88;;
20365;SDS011;10341;49.894;8.822;2023-02-15T01:41:17;39.22;;;15.95;;
20365;SDS011;10341;49.894;8.822;2023-02-15T01:46:42;36.10;;;15.65;;
20365;SDS011;10341;49.894;8.822;2023-02-15T01:52:09;38.83;;;15.85;;
20365;SDS011;10341;49.894;8.822;2023-02-15T01:57:31;41.85;;;16.38;;
20365;SDS011;10341;49.894;8.822;2023-02-15T02:02:51;41.60;;;16.20;;
20365;SDS011;10341;49.894;8.822;2023-02-15T02:08:17;44.25;;;17.70;;
20365;SDS011;10341;49.894;8.822;2023-02-15T02:19:05;45.40;;;16.80;;
20365;SDS011;10341;49.894;8.822;2023-02-15T02:30:33;51.28;;;18.52;;
20365;SDS011;10341;49.894;8.822;2023-02-15T02:36:30;46.72;;;17.08;;
20365;SDS011;10341;49.894;8.822;2023-02-15T02:42:34;46.13;;;17.48;;
20365;SDS011;10341;49.894;8.822;2023-02-15T02:47:51;47.30;;;17.92;;
20365;SDS011;10341;49.894;8.822;2023-02-15T02:53:19;39.28;;;16.08;;
20365;SDS011;10341;49.894;8.822;2023-02-15T02:58:43;40.17;;;16.35;;
20365;SDS011;10341;49.894;8.822;2023-02-15T03:04:25;38.70;;;16.00;;
20365;SDS011;10341;49.894;8.822;2023-02-15T03:09:50;36.50;;;15.88;;
20365;SDS011;10341;49.894;8.822;2023-02-15T03:15:19;36.88;;;16.10;;
20365;SDS011;10341;49.894;8.822;2023-02-15T03:20:41;35.40;;;15.77;;
20365;SDS011;10341;49.894;8.822;2023-02-15T03:26:03;37.17;;;15.70;;
20365;SDS011;10341;49.894;8.822;2023-02-15T03:31:28;33.13;;;15.05;;
20365;SDS011;10341;49.894;8.822;2023-02-15T03:36:51;38.53;;;16.13;;
20365;SDS011;10341;49.894;8.822;2023-02-15T03:47:46;38.55;;;16.67;;
20365;SDS011;10341;49.894;8.822;2023-02-15T03:53:09;38.45;;;16.33;;
20365;SDS011;10341;49.894;8.822;2023-02-15T03:58:32;36.95;;;15.18;;
20365;SDS011;10341;49.894;8.822;2023-02-15T04:04:12;43.85;;;16.35;;
20365;SDS011;10341;49.894;8.822;2023-02-15T04:09:36;40.15;;;16.33;;
20365;SDS011;10341;49.894;8.822;2023-02-15T04:15:15;35.88;;;14.93;;
20365;SDS011;10341;49.894;8.822;2023-02-15T04:20:53;36.20;;;14.80;;
20365;SDS011;10341;49.894;8.822;2023-02-15T04:26:31;36.25;;;15.82;;
20365;SDS011;10341;49.894;8.822;2023-02-15T04:37:11;39.60;;;15.00;;
20365;SDS011;10341;49.894;8.822;2023-02-15T04:47:50;37.50;;;15.10;;
20365;SDS011;10341;49.894;8.822;2023-02-15T04:53:09;39.75;;;15.95;;
20365;SDS011;10341;49.894;8.822;2023-02-15T04:58:29;34.17;;;13.95;;
20365;SDS011;10341;49.894;8.822;2023-02-15T05:03:48;33.03;;;15.25;;
20365;SDS011;10341;49.894;8.822;2023-02-15T05:09:07;35.50;;;14.85;;
20365;SDS011;10341;49.894;8.822;2023-02-15T05:14:26;38.40;;;15.20;;
20365;SDS011;10341;49.894;8.822;2023-02-15T05:19:46;40.08;;;15.23;;
20365;SDS011;10341;49.894;8.822;2023-02-15T05:25:05;32.88;;;14.23;;
20365;SDS011;10341;49.894;8.822;2023-02-15T05:30:44;29.13;;;12.90;;
20365;SDS011;10341;49.894;8.822;2023-02-15T05:36:06;34.47;;;13.88;;
20365;SDS011;10341;49.894;8.822;2023-02-15T05:41:26;29.67;;;13.02;;
20365;SDS011;10341;49.894;8.822;2023-02-15T05:46:45;28.73;;;12.90;;
20365;SDS011;10341;49.894;8.822;2023-02-15T05:52:05;39.67;;;13.57;;
20365;SDS011;10341;49.894;8.822;2023-02-15T06:02:45;28.48;;;12.38;;
20365;SDS011;10341;49.894;8.822;2023-02-15T06:13:24;29.10;;;12.60;;
20365;SDS011;10341;49.894;8.822;2023-02-15T06:18:43;27.88;;;12.05;;
20365;SDS011;10341;49.894;8.822;2023-02-15T06:24:03;31.83;;;13.18;;
20365;SDS011;10341;49.894;8.822;2023-02-15T06:34:41;24.88;;;11.45;;
20365;SDS011;10341;49.894;8.822;2023-02-15T06:40:01;26.90;;;12.27;;
20365;SDS011;10341;49.894;8.822;2023-02-15T06:45:20;33.45;;;12.68;;
20365;SDS011;10341;49.894;8.822;2023-02-15T06:50:39;32.67;;;13.77;;
20365;SDS011;10341;49.894;8.822;2023-02-15T06:56:02;27.20;;;11.98;;
20365;SDS011;10341;49.894;8.822;2023-02-15T07:01:25;27.35;;;11.60;;
20365;SDS011;10341;49.894;8.822;2023-02-15T07:06:45;26.50;;;11.35;;
20365;SDS011;10341;49.894;8.822;2023-02-15T07:12:05;25.35;;;11.35;;
20365;SDS011;10341;49.894;8.822;2023-02-15T07:17:44;27.90;;;11.07;;
20365;SDS011;10341;49.894;8.822;2023-02-15T07:28:23;23.00;;;10.77;;
20365;SDS011;10341;49.894;8.822;2023-02-15T07:33:43;25.38;;;11.32;;
20365;SDS011;10341;49.894;8.822;2023-02-15T07:39:02;23.13;;;10.82;;
20365;SDS011;10341;49.894;8.822;2023-02-15T07:44:22;21.27;;;10.25;;
20365;SDS011;10341;49.894;8.822;2023-02-15T07:49:42;21.05;;;9.90;;
20365;SDS011;10341;49.894;8.822;2023-02-15T07:55:01;25.73;;;10.75;;
20365;SDS011;10341;49.894;8.822;2023-02-15T08:06:00;24.58;;;10.35;;
20365;SDS011;10341;49.894;8.822;2023-02-15T08:16:55;25.85;;;11.45;;
20365;SDS011;10341;49.894;8.822;2023-02-15T08:22:17;26.08;;;11.30;;
20365;SDS011;10341;49.894;8.822;2023-02-15T08:32:56;23.38;;;11.30;;
20365;SDS011;10341;49.894;8.822;2023-02-15T08:38:16;25.85;;;10.60;;
20365;SDS011;10341;49.894;8.822;2023-02-15T08:48:55;27.83;;;11.80;;
20365;SDS011;10341;49.894;8.822;2023-02-15T08:54:16;30.95;;;12.05;;
20365;SDS011;10341;49.894;8.822;2023-02-15T08:59:37;25.05;;;10.88;;
20365;SDS011;10341;49.894;8.822;2023-02-15T09:10:16;29.70;;;11.45;;
20365;SDS011;10341;49.894;8.822;2023-02-15T09:15:35;25.10;;;11.05;;
20365;SDS011;10341;49.894;8.822;2023-02-15T09:20:55;26.77;;;11.32;;
20365;SDS011;10341;49.894;8.822;2023-02-15T09:31:40;24.58;;;10.85;;
20365;SDS011;10341;49.894;8.822;2023-02-15T09:37:04;27.27;;;11.65;;
20365;SDS011;10341;49.894;8.822;2023-02-15T09:53:56;26.20;;;11.38;;
20365;SDS011;10341;49.894;8.822;2023-02-15T09:59:57;23.17;;;10.57;;
20365;SDS011;10341;49.894;8.822;2023-02-15T10:05:51;24.75;;;10.77;;
20365;SDS011;10341;49.894;8.822;2023-02-15T10:28:09;27.60;;;11.98;;
20365;SDS011;10341;49.894;8.822;2023-02-15T10:34:01;29.42;;;12.18;;
20365;SDS011;10341;49.894;8.822;2023-02-15T10:51:05;24.37;;;11.63;;
20365;SDS011;10341;49.894;8.822;2023-02-15T11:07:31;35.00;;;13.73;;
20365;SDS011;10341;49.894;8.822;2023-02-15T11:12:56;31.88;;;13.45;;
20365;SDS011;10341;49.894;8.822;2023-02-15T11:18:23;36.38;;;14.95;;
20365;SDS011;10341;49.894;8.822;2023-02-15T11:24:00;33.88;;;14.57;;
20365;SDS011;10341;49.894;8.822;2023-02-15T11:29:37;36.72;;;15.18;;
20365;SDS011;10341;49.894;8.822;2023-02-15T11:40:50;45.72;;;17.58;;
20365;SDS011;10341;49.894;8.822;2023-02-15T11:46:10;44.03;;;17.25;;
20365;SDS011;10341;49.894;8.822;2023-02-15T11:51:31;41.38;;;16.88;;
20365;SDS011;10341;49.894;8.822;2023-02-15T12:02:18;36.67;;;15.95;;
20365;SDS011;10341;49.894;8.822;2023-02-15T12:13:34;39.42;;;16.30;;
20365;SDS011;10341;49.894;8.822;2023-02-15T12:18:55;42.08;;;16.77;;
20365;SDS011;10341;49.894;8.822;2023-02-15T12:24:17;44.97;;;18.42;;
20365;SDS011;10341;49.894;8.822;2023-02-15T12:29:41;44.03;;;17.90;;
20365;SDS011;10341;49.894;8.822;2023-02-15T12:35:21;48.05;;;18.30;;
20365;SDS011;10341;49.894;8.822;2023-02-15T12:41:01;41.53;;;18.33;;
20365;SDS011;10341;49.894;8.822;2023-02-15T12:46:26;46.30;;;18.50;;
20365;SDS011;10341;49.894;8.822;2023-02-15T12:51:53;41.38;;;17.05;;
20365;SDS011;10341;49.894;8.822;2023-02-15T13:02:46;39.75;;;17.40;;
20365;SDS011;10341;49.894;8.822;2023-02-15T13:08:14;37.47;;;17.38;;
20365;SDS011;10341;49.894;8.822;2023-02-15T13:13:47;32.25;;;15.88;;
20365;SDS011;10341;49.894;8.822;2023-02-15T13:19:17;30.48;;;15.38;;
20365;SDS011;10341;49.894;8.822;2023-02-15T13:24:50;29.42;;;14.90;;
20365;SDS011;10341;49.894;8.822;2023-02-15T13:30:23;26.75;;;14.35;;
20365;SDS011;10341;49.894;8.822;2023-02-15T13:35:56;25.65;;;13.95;;
20365;SDS011;10341;49.894;8.822;2023-02-15T13:52:47;25.13;;;14.18;;
20365;SDS011;10341;49.894;8.822;2023-02-15T14:10:14;24.73;;;14.38;;
20365;SDS011;10341;49.894;8.822;2023-02-15T14:16:03;24.60;;;13.57;;
20365;SDS011;10341;49.894;8.822;2023-02-15T14:26:52;28.83;;;15.05;;
20365;SDS011;10341;49.894;8.822;2023-02-15T14:32:31;25.40;;;13.43;;
20365;SDS011;10341;49.894;8.822;2023-02-15T14:49:38;32.13;;;14.63;;
20365;SDS011;10341;49.894;8.822;2023-02-15T14:54:58;28.80;;;13.25;;
20365;SDS011;10341;49.894;8.822;2023-02-15T15:06:20;33.13;;;14.25;;
20365;SDS011;10341;49.894;8.822;2023-02-15T15:11:51;25.08;;;13.88;;
20365;SDS011;10341;49.894;8.822;2023-02-15T15:46:09;26.80;;;13.23;;
20365;SDS011;10341;49.894;8.822;2023-02-15T15:51:34;25.77;;;13.55;;
20365;SDS011;10341;49.894;8.822;2023-02-15T15:57:00;26.83;;;12.98;;
20365;SDS011;10341;49.894;8.822;2023-02-15T16:02:22;27.88;;;14.25;;
20365;SDS011;10341;49.894;8.822;2023-02-15T16:07:42;30.88;;;13.77;;
20365;SDS011;10341;49.894;8.822;2023-02-15T16:13:02;32.65;;;15.20;;
20365;SDS011;10341;49.894;8.822;2023-02-15T16:29:33;33.17;;;15.65;;
20365;SDS011;10341;49.894;8.822;2023-02-15T16:35:00;42.53;;;18.52;;
20365;SDS011;10341;49.894;8.822;2023-02-15T16:45:48;42.60;;;18.38;;
20365;SDS011;10341;49.894;8.822;2023-02-15T16:51:09;44.42;;;18.60;;
20365;SDS011;10341;49.894;8.822;2023-02-15T16:56:37;45.95;;;19.63;;
20365;SDS011;10341;49.894;8.822;2023-02-15T17:01:57;43.25;;;18.98;;
20365;SDS011;10341;49.894;8.822;2023-02-15T17:07:20;43.05;;;17.88;;
20365;SDS011;10341;49.894;8.822;2023-02-15T17:12:43;53.03;;;21.70;;
20365;SDS011;10341;49.894;8.822;2023-02-15T17:23:29;44.50;;;18.40;;
20365;SDS011;10341;49.894;8.822;2023-02-15T17:28:56;39.58;;;17.58;;
20365;SDS011;10341;49.894;8.822;2023-02-15T17:45:47;54.30;;;21.40;;
20365;SDS011;10341;49.894;8.822;2023-02-15T17:51:11;49.70;;;21.67;;
20365;SDS011;10341;49.894;8.822;2023-02-15T17:56:33;50.22;;;19.77;;
20365;SDS011;10341;49.894;8.822;2023-02-15T18:01:54;48.33;;;20.35;;
20365;SDS011;10341;49.894;8.822;2023-02-15T18:07:32;51.28;;;20.92;;
20365;SDS011;10341;49.894;8.822;2023-02-15T18:13:11;51.83;;;20.98;;
20365;SDS011;10341;49.894;8.822;2023-02-15T18:18:31;55.17;;;21.00;;
20365;SDS011;10341;49.894;8.822;2023-02-15T18:23:51;49.42;;;20.77;;
20365;SDS011;10341;49.894;8.822;2023-02-15T18:29:11;50.25;;;21.42;;
20365;SDS011;10341;49.894;8.822;2023-02-15T18:34:32;49.78;;;21.42;;
20365;SDS011;10341;49.894;8.822;2023-02-15T18:39:56;49.35;;;20.08;;
20365;SDS011;10341;49.894;8.822;2023-02-15T18:45:17;54.55;;;20.42;;
20365;SDS011;10341;49.894;8.822;2023-02-15T18:50:39;46.25;;;20.75;;
20365;SDS011;10341;49.894;8.822;2023-02-15T18:55:59;54.75;;;21.35;;
20365;SDS011;10341;49.894;8.822;2023-02-15T19:01:20;54.40;;;21.05;;
20365;SDS011;10341;49.894;8.822;2023-02-15T19:06:42;49.63;;;19.88;;
20365;SDS011;10341;49.894;8.822;2023-02-15T19:12:07;51.92;;;20.55;;
20365;SDS011;10341;49.894;8.822;2023-02-15T19:17:29;54.45;;;20.27;;
20365;SDS011;10341;49.894;8.822;2023-02-15T19:22:49;49.92;;;20.10;;
20365;SDS011;10341;49.894;8.822;2023-02-15T19:28:19;54.35;;;20.60;;
20365;SDS011;10341;49.894;8.822;2023-02-15T19:33:48;60.95;;;23.85;;
20365;SDS011;10341;49.894;8.822;2023-02-15T19:39:16;43.58;;;17.33;;
20365;SDS011;10341;49.894;8.822;2023-02-15T19:44:46;51.33;;;19.38;;
20365;SDS011;10341;49.894;8.822;2023-02-15T19:50:06;51.97;;;19.58;;
20365;SDS011;10341;49.894;8.822;2023-02-15T19:55:28;52.78;;;19.75;;
20365;SDS011;10341;49.894;8.822;2023-02-15T20:00:49;57.67;;;21.80;;
20365;SDS011;10341;49.894;8.822;2023-02-15T20:06:13;52.22;;;21.65;;
20365;SDS011;10341;49.894;8.822;2023-02-15T20:11:33;52.25;;;21.40;;
20365;SDS011;10341;49.894;8.822;2023-02-15T20:16:53;50.00;;;19.65;;
20365;SDS011;10341;49.894;8.822;2023-02-15T20:27:42;56.15;;;21.10;;
20365;SDS011;10341;49.894;8.822;2023-02-15T20:33:02;49.05;;;18.75;;
20365;SDS011;10341;49.894;8.822;2023-02-15T20:38:25;55.50;;;18.92;;
20365;SDS011;10341;49.894;8.822;2023-02-15T20:43:47;46.10;;;18.55;;
20365;SDS011;10341;49.894;8.822;2023-02-15T20:49:06;45.78;;;19.80;;
20365;SDS011;10341;49.894;8.822;2023-02-15T20:59:51;57.55;;;18.60;;
20365;SDS011;10341;49.894;8.822;2023-02-15T21:05:21;49.53;;;18.85;;
20365;SDS011;10341;49.894;8.822;2023-02-15T21:10:43;52.35;;;19.90;;
20365;SDS011;10341;49.894;8.822;2023-02-15T21:16:04;48.70;;;18.20;;
20365;SDS011;10341;49.894;8.822;2023-02-15T21:21:23;46.08;;;19.08;;
20365;SDS011;10341;49.894;8.822;2023-02-15T21:32:03;47.88;;;17.30;;
20365;SDS011;10341;49.894;8.822;2023-02-15T21:37:26;46.55;;;17.75;;
20365;SDS011;10341;49.894;8.822;2023-02-15T21:42:48;44.00;;;19.52;;
20365;SDS011;10341;49.894;8.822;2023-02-15T21:53:02;48.25;;;18.27;;
20365;SDS011;10341;49.894;8.822;2023-02-15T21:58:23;47.40;;;19.17;;
20365;SDS011;10341;49.894;8.822;2023-02-15T22:03:45;55.75;;;19.50;;
20365;SDS011;10341;49.894;8.822;2023-02-15T22:09:18;54.22;;;20.20;;
20365;SDS011;10341;49.894;8.822;2023-02-15T22:14:43;55.67;;;21.38;;
20365;SDS011;10341;49.894;8.822;2023-02-15T22:20:14;51.55;;;19.63;;
20365;SDS011;10341;49.894;8.822;2023-02-15T22:25:35;52.88;;;20.98;;
20365;SDS011;10341;49.894;8.822;2023-02-15T22:36:21;51.40;;;19.60;;
20365;SDS011;10341;49.894;8.822;2023-02-15T22:41:43;49.55;;;20.67;;
20365;SDS011;10341;49.894;8.822;2023-02-15T22:52:23;55.97;;;20.93;;
20365;SDS011;10341;49.894;8.822;2023-02-15T22:57:43;45.90;;;19.98;;
20365;SDS011;10341;49.894;8.822;2023-02-15T23:03:13;50.13;;;21.17;;
20365;SDS011;10341;49.894;8.822;2023-02-15T23:08:36;50.40;;;20.42;;
20365;SDS011;10341;49.894;8.822;2023-02-15T23:13:56;52.97;;;21.50;;
20365;SDS011;10341;49.894;8.822;2023-02-15T23:24:35;53.97;;;19.20;;
20365;SDS011;10341;49.894;8.822;2023-02-15T23:35:14;59.67;;;20.50;;
20365;SDS011;10341;49.894;8.822;2023-02-15T23:40:35;51.75;;;19.73;;
20365;SDS011;10341;49.894;8.822;2023-02-15T23:46:19;58.50;;;20.40;;
20365;SDS011;10341;49.894;8.822;2023-02-15T23:51:42;46.35;;;18.98;;
20365;SDS011;10341;49.894;8.822;2023-02-15T23:57:08;48.72;;;19.83;;
